sensor_id;sensor_type;location;lat;lon;timestamp;P1;durP1;ratioP1;P2;durP2;ratioP2
4754;SDS011;2391;47.212;7.542;2022-12-07T00:00:54;16.07;;;9.80;;
4754;SDS011;2391;47.212;7.542;2022-12-07T00:03:22;18.40;;;11.10;;
4754;SDS011;2391;47.212;7.542;2022-12-07T00:05:48;14.50;;;9.40;;
4754;SDS011;2391;47.212;7.542;2022-12-07T00:08:13;17.07;;;11.00;;
4754;SDS011;2391;47.212;7.542;2022-12-07T00:10:39;18.33;;;11.07;;
4754;SDS011;2391;47.212;7.542;2022-12-07T00:13:05;19.83;;;11.13;;
4754;SDS011;2391;47.212;7.542;2022-12-07T00:15:30;18.73;;;10.97;;
4754;SDS011;2391;47.212;7.542;2022-12-07T00:17:59;16.50;;;11.13;;
4754;SDS011;2391;47.212;7.542;2022-12-07T00:20:25;20.10;;;11.30;;
4754;SDS011;2391;47.212;7.542;2022-12-07T00:22:51;19.70;;;12.33;;
4754;SDS011;2391;47.212;7.542;2022-12-07T00:25:17;19.17;;;11.80;;
4754;SDS011;2391;47.212;7.542;2022-12-07T00:27:42;21.83;;;12.10;;
4754;SDS011;2391;47.212;7.542;2022-12-07T00:30:08;23.73;;;12.80;;
4754;SDS011;2391;47.212;7.542;2022-12-07T00:32:34;22.67;;;13.47;;
4754;SDS011;2391;47.212;7.542;2022-12-07T00:35:00;19.90;;;12.00;;
4754;SDS011;2391;47.212;7.542;2022-12-07T00:37:26;24.20;;;13.10;;
4754;SDS011;2391;47.212;7.542;2022-12-07T00:39:51;18.67;;;12.63;;
4754;SDS011;2391;47.212;7.542;2022-12-07T00:42:17;25.80;;;14.00;;
4754;SDS011;2391;47.212;7.542;2022-12-07T00:44:43;22.13;;;13.73;;
4754;SDS011;2391;47.212;7.542;2022-12-07T00:47:08;22.43;;;13.17;;
4754;SDS011;2391;47.212;7.542;2022-12-07T00:49:34;22.10;;;12.40;;
4754;SDS011;2391;47.212;7.542;2022-12-07T00:52:00;19.80;;;12.27;;
4754;SDS011;2391;47.212;7.542;2022-12-07T00:54:29;23.20;;;14.17;;
4754;SDS011;2391;47.212;7.542;2022-12-07T00:56:54;22.40;;;12.57;;
4754;SDS011;2391;47.212;7.542;2022-12-07T00:59:20;23.90;;;13.77;;
4754;SDS011;2391;47.212;7.542;2022-12-07T01:01:46;20.17;;;12.47;;
4754;SDS011;2391;47.212;7.542;2022-12-07T01:04:12;21.90;;;13.20;;
4754;SDS011;2391;47.212;7.542;2022-12-07T01:06:38;22.73;;;12.90;;
4754;SDS011;2391;47.212;7.542;2022-12-07T01:09:04;21.63;;;13.20;;
4754;SDS011;2391;47.212;7.542;2022-12-07T01:11:31;22.17;;;13.00;;
4754;SDS011;2391;47.212;7.542;2022-12-07T01:13:58;25.40;;;14.00;;
4754;SDS011;2391;47.212;7.542;2022-12-07T01:16:27;23.53;;;13.40;;
4754;SDS011;2391;47.212;7.542;2022-12-07T01:18:55;21.60;;;13.27;;
4754;SDS011;2391;47.212;7.542;2022-12-07T01:21:23;22.63;;;13.30;;
4754;SDS011;2391;47.212;7.542;2022-12-07T01:23:53;21.90;;;13.37;;
4754;SDS011;2391;47.212;7.542;2022-12-07T01:26:20;25.60;;;13.93;;
4754;SDS011;2391;47.212;7.542;2022-12-07T01:28:47;21.70;;;12.60;;
4754;SDS011;2391;47.212;7.542;2022-12-07T01:31:15;21.30;;;13.43;;
4754;SDS011;2391;47.212;7.542;2022-12-07T01:33:49;19.27;;;12.67;;
4754;SDS011;2391;47.212;7.542;2022-12-07T01:36:13;22.20;;;13.20;;
4754;SDS011;2391;47.212;7.542;2022-12-07T01:38:41;21.13;;;13.27;;
4754;SDS011;2391;47.212;7.542;2022-12-07T01:41:08;19.17;;;12.73;;
4754;SDS011;2391;47.212;7.542;2022-12-07T01:43:35;24.03;;;12.53;;
4754;SDS011;2391;47.212;7.542;2022-12-07T01:46:02;24.50;;;14.37;;
4754;SDS011;2391;47.212;7.542;2022-12-07T01:48:34;24.13;;;14.37;;
4754;SDS011;2391;47.212;7.542;2022-12-07T01:51:00;20.53;;;13.10;;
4754;SDS011;2391;47.212;7.542;2022-12-07T01:53:28;21.60;;;13.77;;
4754;SDS011;2391;47.212;7.542;2022-12-07T01:55:55;27.27;;;14.90;;
4754;SDS011;2391;47.212;7.542;2022-12-07T01:58:23;24.73;;;14.20;;
4754;SDS011;2391;47.212;7.542;2022-12-07T02:00:50;26.17;;;13.97;;
4754;SDS011;2391;47.212;7.542;2022-12-07T02:05:48;29.00;;;16.50;;
4754;SDS011;2391;47.212;7.542;2022-12-07T02:08:15;25.50;;;14.03;;
4754;SDS011;2391;47.212;7.542;2022-12-07T02:10:43;23.87;;;14.90;;
4754;SDS011;2391;47.212;7.542;2022-12-07T02:15:45;26.83;;;15.23;;
4754;SDS011;2391;47.212;7.542;2022-12-07T02:18:16;26.17;;;14.70;;
4754;SDS011;2391;47.212;7.542;2022-12-07T02:23:43;25.00;;;14.33;;
4754;SDS011;2391;47.212;7.542;2022-12-07T02:29:10;30.80;;;16.07;;
4754;SDS011;2391;47.212;7.542;2022-12-07T02:31:42;26.43;;;15.13;;
4754;SDS011;2391;47.212;7.542;2022-12-07T02:36:57;28.57;;;15.50;;
4754;SDS011;2391;47.212;7.542;2022-12-07T02:39:31;24.37;;;14.70;;
4754;SDS011;2391;47.212;7.542;2022-12-07T02:42:00;22.37;;;14.10;;
4754;SDS011;2391;47.212;7.542;2022-12-07T02:44:30;25.50;;;15.30;;
4754;SDS011;2391;47.212;7.542;2022-12-07T02:46:59;29.80;;;17.20;;
4754;SDS011;2391;47.212;7.542;2022-12-07T02:49:30;25.67;;;15.23;;
4754;SDS011;2391;47.212;7.542;2022-12-07T02:51:57;28.00;;;15.60;;
4754;SDS011;2391;47.212;7.542;2022-12-07T02:54:23;26.90;;;15.33;;
4754;SDS011;2391;47.212;7.542;2022-12-07T02:56:50;34.83;;;17.20;;
4754;SDS011;2391;47.212;7.542;2022-12-07T03:02:37;27.80;;;14.50;;
4754;SDS011;2391;47.212;7.542;2022-12-07T03:16:21;33.97;;;16.80;;
4754;SDS011;2391;47.212;7.542;2022-12-07T03:18:52;33.03;;;16.50;;
4754;SDS011;2391;47.212;7.542;2022-12-07T03:21:39;26.43;;;14.17;;
4754;SDS011;2391;47.212;7.542;2022-12-07T03:24:12;30.20;;;16.90;;
4754;SDS011;2391;47.212;7.542;2022-12-07T03:26:51;37.33;;;15.67;;
4754;SDS011;2391;47.212;7.542;2022-12-07T03:29:20;32.93;;;16.80;;
4754;SDS011;2391;47.212;7.542;2022-12-07T03:31:55;34.97;;;16.43;;
4754;SDS011;2391;47.212;7.542;2022-12-07T03:34:25;28.90;;;16.17;;
4754;SDS011;2391;47.212;7.542;2022-12-07T03:37:12;25.40;;;13.97;;
4754;SDS011;2391;47.212;7.542;2022-12-07T03:39:52;34.73;;;16.57;;
4754;SDS011;2391;47.212;7.542;2022-12-07T03:42:18;29.70;;;15.67;;
4754;SDS011;2391;47.212;7.542;2022-12-07T03:44:43;29.40;;;15.13;;
4754;SDS011;2391;47.212;7.542;2022-12-07T03:52:40;26.33;;;15.13;;
4754;SDS011;2391;47.212;7.542;2022-12-07T03:55:11;26.63;;;15.10;;
4754;SDS011;2391;47.212;7.542;2022-12-07T03:57:45;27.40;;;14.70;;
4754;SDS011;2391;47.212;7.542;2022-12-07T04:00:13;24.30;;;13.90;;
4754;SDS011;2391;47.212;7.542;2022-12-07T04:02:40;26.10;;;14.53;;
4754;SDS011;2391;47.212;7.542;2022-12-07T04:05:07;26.87;;;16.53;;
4754;SDS011;2391;47.212;7.542;2022-12-07T04:07:33;26.67;;;14.37;;
4754;SDS011;2391;47.212;7.542;2022-12-07T04:09:59;26.83;;;14.17;;
4754;SDS011;2391;47.212;7.542;2022-12-07T04:12:25;21.93;;;13.73;;
4754;SDS011;2391;47.212;7.542;2022-12-07T04:14:51;23.03;;;13.60;;
4754;SDS011;2391;47.212;7.542;2022-12-07T04:17:16;23.33;;;13.57;;
4754;SDS011;2391;47.212;7.542;2022-12-07T04:19:42;24.53;;;14.03;;
4754;SDS011;2391;47.212;7.542;2022-12-07T04:22:08;23.67;;;14.10;;
4754;SDS011;2391;47.212;7.542;2022-12-07T04:24:33;25.00;;;15.20;;
4754;SDS011;2391;47.212;7.542;2022-12-07T04:26:59;25.80;;;14.70;;
4754;SDS011;2391;47.212;7.542;2022-12-07T04:29:25;25.77;;;14.07;;
4754;SDS011;2391;47.212;7.542;2022-12-07T04:31:52;24.43;;;15.10;;
4754;SDS011;2391;47.212;7.542;2022-12-07T04:34:18;23.53;;;13.57;;
4754;SDS011;2391;47.212;7.542;2022-12-07T04:36:46;25.20;;;14.83;;
4754;SDS011;2391;47.212;7.542;2022-12-07T04:39:28;27.63;;;15.90;;
4754;SDS011;2391;47.212;7.542;2022-12-07T04:41:56;26.20;;;14.87;;
4754;SDS011;2391;47.212;7.542;2022-12-07T04:44:23;25.50;;;14.50;;
4754;SDS011;2391;47.212;7.542;2022-12-07T04:46:50;27.37;;;15.43;;
4754;SDS011;2391;47.212;7.542;2022-12-07T04:49:17;27.90;;;15.30;;
4754;SDS011;2391;47.212;7.542;2022-12-07T04:51:43;25.93;;;14.53;;
4754;SDS011;2391;47.212;7.542;2022-12-07T04:54:10;24.17;;;14.27;;
4754;SDS011;2391;47.212;7.542;2022-12-07T04:56:37;24.30;;;13.73;;
4754;SDS011;2391;47.212;7.542;2022-12-07T04:59:03;25.50;;;14.73;;
4754;SDS011;2391;47.212;7.542;2022-12-07T05:01:29;26.20;;;14.20;;
4754;SDS011;2391;47.212;7.542;2022-12-07T05:03:55;25.07;;;14.37;;
4754;SDS011;2391;47.212;7.542;2022-12-07T05:06:21;27.00;;;14.30;;
4754;SDS011;2391;47.212;7.542;2022-12-07T05:08:46;25.27;;;14.20;;
4754;SDS011;2391;47.212;7.542;2022-12-07T05:11:13;28.17;;;15.40;;
4754;SDS011;2391;47.212;7.542;2022-12-07T05:13:41;29.27;;;15.67;;
4754;SDS011;2391;47.212;7.542;2022-12-07T05:16:07;24.90;;;14.17;;
4754;SDS011;2391;47.212;7.542;2022-12-07T05:18:33;26.77;;;13.30;;
4754;SDS011;2391;47.212;7.542;2022-12-07T05:20:58;26.17;;;14.80;;
4754;SDS011;2391;47.212;7.542;2022-12-07T05:23:24;23.63;;;14.30;;
4754;SDS011;2391;47.212;7.542;2022-12-07T05:25:50;26.77;;;15.17;;
4754;SDS011;2391;47.212;7.542;2022-12-07T05:28:15;23.17;;;14.30;;
4754;SDS011;2391;47.212;7.542;2022-12-07T05:30:41;24.00;;;13.97;;
4754;SDS011;2391;47.212;7.542;2022-12-07T05:33:07;26.30;;;15.50;;
4754;SDS011;2391;47.212;7.542;2022-12-07T05:35:33;27.00;;;15.67;;
4754;SDS011;2391;47.212;7.542;2022-12-07T05:37:58;33.97;;;15.30;;
4754;SDS011;2391;47.212;7.542;2022-12-07T05:40:24;26.60;;;15.43;;
4754;SDS011;2391;47.212;7.542;2022-12-07T05:42:50;22.83;;;14.00;;
4754;SDS011;2391;47.212;7.542;2022-12-07T05:45:16;27.87;;;15.00;;
4754;SDS011;2391;47.212;7.542;2022-12-07T05:47:41;25.83;;;15.00;;
4754;SDS011;2391;47.212;7.542;2022-12-07T05:50:07;26.67;;;15.70;;
4754;SDS011;2391;47.212;7.542;2022-12-07T05:52:33;30.57;;;16.47;;
4754;SDS011;2391;47.212;7.542;2022-12-07T05:54:59;27.40;;;15.80;;
4754;SDS011;2391;47.212;7.542;2022-12-07T05:57:25;29.00;;;15.87;;
4754;SDS011;2391;47.212;7.542;2022-12-07T05:59:51;27.07;;;15.67;;
4754;SDS011;2391;47.212;7.542;2022-12-07T06:02:17;29.30;;;16.33;;
4754;SDS011;2391;47.212;7.542;2022-12-07T06:04:44;29.17;;;15.47;;
4754;SDS011;2391;47.212;7.542;2022-12-07T06:07:12;34.03;;;17.00;;
4754;SDS011;2391;47.212;7.542;2022-12-07T06:09:39;31.13;;;16.90;;
4754;SDS011;2391;47.212;7.542;2022-12-07T06:12:06;30.00;;;16.10;;
4754;SDS011;2391;47.212;7.542;2022-12-07T06:14:52;33.00;;;16.90;;
4754;SDS011;2391;47.212;7.542;2022-12-07T06:17:18;33.37;;;17.13;;
4754;SDS011;2391;47.212;7.542;2022-12-07T06:19:44;31.27;;;16.47;;
4754;SDS011;2391;47.212;7.542;2022-12-07T06:22:10;31.73;;;16.97;;
4754;SDS011;2391;47.212;7.542;2022-12-07T06:24:37;30.13;;;15.63;;
4754;SDS011;2391;47.212;7.542;2022-12-07T06:27:03;30.17;;;17.30;;
4754;SDS011;2391;47.212;7.542;2022-12-07T06:29:29;34.53;;;16.87;;
4754;SDS011;2391;47.212;7.542;2022-12-07T06:31:56;33.00;;;17.73;;
4754;SDS011;2391;47.212;7.542;2022-12-07T06:34:22;29.83;;;16.23;;
4754;SDS011;2391;47.212;7.542;2022-12-07T06:36:49;32.50;;;17.53;;
4754;SDS011;2391;47.212;7.542;2022-12-07T06:39:18;33.50;;;17.17;;
4754;SDS011;2391;47.212;7.542;2022-12-07T06:41:44;30.70;;;17.67;;
4754;SDS011;2391;47.212;7.542;2022-12-07T06:44:10;34.73;;;17.13;;
4754;SDS011;2391;47.212;7.542;2022-12-07T06:46:36;35.20;;;17.80;;
4754;SDS011;2391;47.212;7.542;2022-12-07T06:49:02;33.87;;;18.33;;
4754;SDS011;2391;47.212;7.542;2022-12-07T06:51:29;33.53;;;17.40;;
4754;SDS011;2391;47.212;7.542;2022-12-07T06:53:55;31.60;;;17.10;;
4754;SDS011;2391;47.212;7.542;2022-12-07T06:56:21;31.83;;;16.20;;
4754;SDS011;2391;47.212;7.542;2022-12-07T06:58:48;31.10;;;16.17;;
4754;SDS011;2391;47.212;7.542;2022-12-07T07:01:15;30.37;;;17.20;;
4754;SDS011;2391;47.212;7.542;2022-12-07T07:03:42;33.70;;;16.47;;
4754;SDS011;2391;47.212;7.542;2022-12-07T07:06:09;34.33;;;18.47;;
4754;SDS011;2391;47.212;7.542;2022-12-07T07:08:36;34.23;;;17.40;;
4754;SDS011;2391;47.212;7.542;2022-12-07T07:11:03;31.43;;;16.37;;
4754;SDS011;2391;47.212;7.542;2022-12-07T07:13:29;30.70;;;17.60;;
4754;SDS011;2391;47.212;7.542;2022-12-07T07:15:55;33.03;;;17.07;;
4754;SDS011;2391;47.212;7.542;2022-12-07T07:18:21;31.30;;;16.57;;
4754;SDS011;2391;47.212;7.542;2022-12-07T07:20:47;30.83;;;17.17;;
4754;SDS011;2391;47.212;7.542;2022-12-07T07:23:13;31.40;;;17.43;;
4754;SDS011;2391;47.212;7.542;2022-12-07T07:25:39;28.10;;;16.20;;
4754;SDS011;2391;47.212;7.542;2022-12-07T07:28:05;29.40;;;15.63;;
4754;SDS011;2391;47.212;7.542;2022-12-07T07:30:31;37.33;;;17.90;;
4754;SDS011;2391;47.212;7.542;2022-12-07T07:33:01;35.47;;;18.00;;
4754;SDS011;2391;47.212;7.542;2022-12-07T07:35:26;36.60;;;18.30;;
4754;SDS011;2391;47.212;7.542;2022-12-07T07:37:53;33.70;;;17.67;;
4754;SDS011;2391;47.212;7.542;2022-12-07T07:40:20;32.47;;;17.20;;
4754;SDS011;2391;47.212;7.542;2022-12-07T07:42:49;32.00;;;16.90;;
4754;SDS011;2391;47.212;7.542;2022-12-07T07:45:17;33.97;;;17.40;;
4754;SDS011;2391;47.212;7.542;2022-12-07T07:47:44;36.80;;;17.00;;
4754;SDS011;2391;47.212;7.542;2022-12-07T07:50:10;34.00;;;17.97;;
4754;SDS011;2391;47.212;7.542;2022-12-07T07:52:36;29.47;;;16.27;;
4754;SDS011;2391;47.212;7.542;2022-12-07T07:55:02;38.33;;;18.00;;
4754;SDS011;2391;47.212;7.542;2022-12-07T07:57:29;34.47;;;17.63;;
4754;SDS011;2391;47.212;7.542;2022-12-07T07:59:55;31.87;;;17.50;;
4754;SDS011;2391;47.212;7.542;2022-12-07T08:02:21;34.97;;;17.87;;
4754;SDS011;2391;47.212;7.542;2022-12-07T08:04:47;33.97;;;18.10;;
4754;SDS011;2391;47.212;7.542;2022-12-07T08:07:13;31.43;;;17.50;;
4754;SDS011;2391;47.212;7.542;2022-12-07T08:09:41;41.77;;;19.07;;
4754;SDS011;2391;47.212;7.542;2022-12-07T08:12:07;34.80;;;16.57;;
4754;SDS011;2391;47.212;7.542;2022-12-07T08:14:33;35.27;;;18.30;;
4754;SDS011;2391;47.212;7.542;2022-12-07T08:17:00;34.67;;;18.93;;
4754;SDS011;2391;47.212;7.542;2022-12-07T08:19:25;30.70;;;16.80;;
4754;SDS011;2391;47.212;7.542;2022-12-07T08:21:51;38.90;;;19.17;;
4754;SDS011;2391;47.212;7.542;2022-12-07T08:24:17;35.17;;;17.80;;
4754;SDS011;2391;47.212;7.542;2022-12-07T08:26:43;35.13;;;18.37;;
4754;SDS011;2391;47.212;7.542;2022-12-07T08:29:09;35.40;;;17.70;;
4754;SDS011;2391;47.212;7.542;2022-12-07T08:31:35;37.40;;;19.13;;
4754;SDS011;2391;47.212;7.542;2022-12-07T08:34:01;42.97;;;18.27;;
4754;SDS011;2391;47.212;7.542;2022-12-07T08:36:26;34.17;;;17.27;;
4754;SDS011;2391;47.212;7.542;2022-12-07T08:38:52;35.07;;;16.90;;
4754;SDS011;2391;47.212;7.542;2022-12-07T08:41:18;37.70;;;19.13;;
4754;SDS011;2391;47.212;7.542;2022-12-07T08:43:44;30.87;;;17.00;;
4754;SDS011;2391;47.212;7.542;2022-12-07T08:46:16;33.23;;;17.57;;
4754;SDS011;2391;47.212;7.542;2022-12-07T08:48:50;35.20;;;17.50;;
4754;SDS011;2391;47.212;7.542;2022-12-07T08:51:33;36.63;;;18.80;;
4754;SDS011;2391;47.212;7.542;2022-12-07T08:54:00;36.30;;;17.87;;
4754;SDS011;2391;47.212;7.542;2022-12-07T08:56:28;32.77;;;18.00;;
4754;SDS011;2391;47.212;7.542;2022-12-07T08:58:54;33.33;;;17.10;;
4754;SDS011;2391;47.212;7.542;2022-12-07T09:01:20;33.37;;;17.60;;
4754;SDS011;2391;47.212;7.542;2022-12-07T09:03:46;39.43;;;17.33;;
4754;SDS011;2391;47.212;7.542;2022-12-07T09:06:12;35.90;;;18.07;;
4754;SDS011;2391;47.212;7.542;2022-12-07T09:08:39;32.47;;;17.40;;
4754;SDS011;2391;47.212;7.542;2022-12-07T09:11:08;34.70;;;17.33;;
4754;SDS011;2391;47.212;7.542;2022-12-07T09:13:33;35.10;;;18.10;;
4754;SDS011;2391;47.212;7.542;2022-12-07T09:15:59;36.50;;;19.10;;
4754;SDS011;2391;47.212;7.542;2022-12-07T09:18:26;37.53;;;18.93;;
4754;SDS011;2391;47.212;7.542;2022-12-07T09:20:52;35.13;;;17.20;;
4754;SDS011;2391;47.212;7.542;2022-12-07T09:23:17;32.63;;;17.77;;
4754;SDS011;2391;47.212;7.542;2022-12-07T09:25:43;29.57;;;15.53;;
4754;SDS011;2391;47.212;7.542;2022-12-07T09:28:09;30.93;;;16.20;;
4754;SDS011;2391;47.212;7.542;2022-12-07T09:30:35;29.60;;;16.90;;
4754;SDS011;2391;47.212;7.542;2022-12-07T09:33:01;34.60;;;17.70;;
4754;SDS011;2391;47.212;7.542;2022-12-07T09:35:27;35.60;;;18.07;;
4754;SDS011;2391;47.212;7.542;2022-12-07T09:37:53;35.87;;;17.17;;
4754;SDS011;2391;47.212;7.542;2022-12-07T09:40:19;31.90;;;16.87;;
4754;SDS011;2391;47.212;7.542;2022-12-07T09:42:51;29.00;;;16.53;;
4754;SDS011;2391;47.212;7.542;2022-12-07T09:45:27;30.60;;;16.23;;
4754;SDS011;2391;47.212;7.542;2022-12-07T09:47:54;28.93;;;16.57;;
4754;SDS011;2391;47.212;7.542;2022-12-07T09:50:21;27.50;;;15.50;;
4754;SDS011;2391;47.212;7.542;2022-12-07T09:52:52;28.43;;;17.10;;
4754;SDS011;2391;47.212;7.542;2022-12-07T09:55:27;30.10;;;15.80;;
4754;SDS011;2391;47.212;7.542;2022-12-07T09:57:54;31.43;;;15.77;;
4754;SDS011;2391;47.212;7.542;2022-12-07T10:00:21;29.77;;;16.47;;
4754;SDS011;2391;47.212;7.542;2022-12-07T10:02:55;28.33;;;15.27;;
4754;SDS011;2391;47.212;7.542;2022-12-07T10:05:38;25.00;;;14.83;;
4754;SDS011;2391;47.212;7.542;2022-12-07T10:08:02;30.87;;;16.70;;
4754;SDS011;2391;47.212;7.542;2022-12-07T10:10:33;30.73;;;16.33;;
4754;SDS011;2391;47.212;7.542;2022-12-07T10:13:03;27.27;;;15.97;;
4754;SDS011;2391;47.212;7.542;2022-12-07T10:15:40;29.70;;;16.03;;
4754;SDS011;2391;47.212;7.542;2022-12-07T10:23:43;30.30;;;15.80;;
4754;SDS011;2391;47.212;7.542;2022-12-07T10:26:20;33.30;;;17.20;;
4754;SDS011;2391;47.212;7.542;2022-12-07T10:29:16;31.03;;;17.17;;
4754;SDS011;2391;47.212;7.542;2022-12-07T10:31:39;31.20;;;16.60;;
4754;SDS011;2391;47.212;7.542;2022-12-07T10:34:14;30.27;;;15.43;;
4754;SDS011;2391;47.212;7.542;2022-12-07T10:36:42;32.53;;;16.07;;
4754;SDS011;2391;47.212;7.542;2022-12-07T10:39:11;33.07;;;16.57;;
4754;SDS011;2391;47.212;7.542;2022-12-07T10:44:27;29.17;;;15.80;;
4754;SDS011;2391;47.212;7.542;2022-12-07T10:52:09;27.53;;;16.23;;
4754;SDS011;2391;47.212;7.542;2022-12-07T10:57:27;29.83;;;16.00;;
4754;SDS011;2391;47.212;7.542;2022-12-07T11:00:04;27.17;;;15.43;;
4754;SDS011;2391;47.212;7.542;2022-12-07T11:21:39;24.90;;;14.60;;
4754;SDS011;2391;47.212;7.542;2022-12-07T11:37:45;27.37;;;15.90;;
4754;SDS011;2391;47.212;7.542;2022-12-07T11:40:26;33.50;;;16.53;;
4754;SDS011;2391;47.212;7.542;2022-12-07T11:42:59;28.50;;;16.60;;
4754;SDS011;2391;47.212;7.542;2022-12-07T11:45:44;31.77;;;17.30;;
4754;SDS011;2391;47.212;7.542;2022-12-07T11:48:17;28.03;;;16.20;;
4754;SDS011;2391;47.212;7.542;2022-12-07T11:50:46;28.77;;;16.57;;
4754;SDS011;2391;47.212;7.542;2022-12-07T11:53:18;26.97;;;15.90;;
4754;SDS011;2391;47.212;7.542;2022-12-07T12:04:16;25.20;;;14.87;;
4754;SDS011;2391;47.212;7.542;2022-12-07T12:06:44;25.40;;;14.83;;
4754;SDS011;2391;47.212;7.542;2022-12-07T12:23:18;23.17;;;14.53;;
4754;SDS011;2391;47.212;7.542;2022-12-07T12:25:47;27.23;;;14.63;;
4754;SDS011;2391;47.212;7.542;2022-12-07T12:28:23;27.70;;;15.83;;
4754;SDS011;2391;47.212;7.542;2022-12-07T12:33:38;24.57;;;14.70;;
4754;SDS011;2391;47.212;7.542;2022-12-07T12:36:18;23.60;;;15.20;;
4754;SDS011;2391;47.212;7.542;2022-12-07T12:54:35;21.53;;;13.57;;
4754;SDS011;2391;47.212;7.542;2022-12-07T13:02:25;21.70;;;13.90;;
4754;SDS011;2391;47.212;7.542;2022-12-07T13:04:58;23.27;;;14.77;;
4754;SDS011;2391;47.212;7.542;2022-12-07T13:13:04;23.67;;;13.53;;
4754;SDS011;2391;47.212;7.542;2022-12-07T13:15:49;20.60;;;13.60;;
4754;SDS011;2391;47.212;7.542;2022-12-07T13:20:59;21.80;;;14.60;;
4754;SDS011;2391;47.212;7.542;2022-12-07T13:29:12;23.20;;;13.73;;
4754;SDS011;2391;47.212;7.542;2022-12-07T13:37:00;24.67;;;15.10;;
4754;SDS011;2391;47.212;7.542;2022-12-07T13:39:46;20.30;;;13.00;;
4754;SDS011;2391;47.212;7.542;2022-12-07T13:42:26;23.10;;;13.37;;
4754;SDS011;2391;47.212;7.542;2022-12-07T13:44:55;22.03;;;12.67;;
4754;SDS011;2391;47.212;7.542;2022-12-07T13:47:41;21.43;;;13.47;;
4754;SDS011;2391;47.212;7.542;2022-12-07T13:50:21;24.80;;;13.20;;
4754;SDS011;2391;47.212;7.542;2022-12-07T13:52:49;21.87;;;12.50;;
4754;SDS011;2391;47.212;7.542;2022-12-07T13:55:16;18.70;;;12.13;;
4754;SDS011;2391;47.212;7.542;2022-12-07T13:57:43;22.07;;;12.77;;
4754;SDS011;2391;47.212;7.542;2022-12-07T14:00:16;21.33;;;13.37;;
4754;SDS011;2391;47.212;7.542;2022-12-07T14:02:57;24.20;;;13.00;;
4754;SDS011;2391;47.212;7.542;2022-12-07T14:05:29;20.50;;;12.20;;
4754;SDS011;2391;47.212;7.542;2022-12-07T14:10:27;17.60;;;11.80;;
4754;SDS011;2391;47.212;7.542;2022-12-07T14:12:55;17.93;;;11.30;;
4754;SDS011;2391;47.212;7.542;2022-12-07T14:15:27;21.60;;;12.90;;
4754;SDS011;2391;47.212;7.542;2022-12-07T14:17:56;19.53;;;12.20;;
4754;SDS011;2391;47.212;7.542;2022-12-07T14:20:36;19.40;;;12.70;;
4754;SDS011;2391;47.212;7.542;2022-12-07T14:23:04;18.20;;;11.20;;
4754;SDS011;2391;47.212;7.542;2022-12-07T14:25:49;17.70;;;11.40;;
4754;SDS011;2391;47.212;7.542;2022-12-07T14:28:30;19.30;;;12.27;;
4754;SDS011;2391;47.212;7.542;2022-12-07T14:30:54;19.27;;;12.00;;
4754;SDS011;2391;47.212;7.542;2022-12-07T14:33:20;19.00;;;12.30;;
4754;SDS011;2391;47.212;7.542;2022-12-07T14:35:47;19.00;;;12.53;;
4754;SDS011;2391;47.212;7.542;2022-12-07T14:38:13;17.03;;;11.63;;
4754;SDS011;2391;47.212;7.542;2022-12-07T14:40:38;18.73;;;11.60;;
4754;SDS011;2391;47.212;7.542;2022-12-07T14:43:05;20.93;;;11.80;;
4754;SDS011;2391;47.212;7.542;2022-12-07T14:45:42;18.50;;;11.70;;
4754;SDS011;2391;47.212;7.542;2022-12-07T14:48:11;22.63;;;12.83;;
4754;SDS011;2391;47.212;7.542;2022-12-07T14:50:43;18.37;;;11.67;;
4754;SDS011;2391;47.212;7.542;2022-12-07T14:53:13;21.53;;;11.80;;
4754;SDS011;2391;47.212;7.542;2022-12-07T14:55:42;20.90;;;11.80;;
4754;SDS011;2391;47.212;7.542;2022-12-07T14:58:11;18.80;;;11.90;;
4754;SDS011;2391;47.212;7.542;2022-12-07T15:00:42;19.93;;;12.23;;
4754;SDS011;2391;47.212;7.542;2022-12-07T15:03:09;23.50;;;13.70;;
4754;SDS011;2391;47.212;7.542;2022-12-07T15:05:35;19.70;;;12.47;;
4754;SDS011;2391;47.212;7.542;2022-12-07T15:08:02;20.33;;;12.37;;
4754;SDS011;2391;47.212;7.542;2022-12-07T15:10:30;19.40;;;13.30;;
4754;SDS011;2391;47.212;7.542;2022-12-07T15:12:58;18.17;;;11.47;;
4754;SDS011;2391;47.212;7.542;2022-12-07T15:15:27;16.20;;;10.33;;
4754;SDS011;2391;47.212;7.542;2022-12-07T15:17:53;17.00;;;10.27;;
4754;SDS011;2391;47.212;7.542;2022-12-07T15:20:20;16.33;;;10.50;;
4754;SDS011;2391;47.212;7.542;2022-12-07T15:22:45;21.53;;;12.40;;
4754;SDS011;2391;47.212;7.542;2022-12-07T15:25:14;18.90;;;11.03;;
4754;SDS011;2391;47.212;7.542;2022-12-07T15:27:40;17.70;;;11.43;;
4754;SDS011;2391;47.212;7.542;2022-12-07T15:30:06;17.50;;;11.77;;
4754;SDS011;2391;47.212;7.542;2022-12-07T15:32:33;20.30;;;11.57;;
4754;SDS011;2391;47.212;7.542;2022-12-07T15:34:58;17.97;;;11.70;;
4754;SDS011;2391;47.212;7.542;2022-12-07T15:37:24;20.37;;;11.60;;
4754;SDS011;2391;47.212;7.542;2022-12-07T15:39:50;18.00;;;11.53;;
4754;SDS011;2391;47.212;7.542;2022-12-07T15:42:15;18.70;;;11.93;;
4754;SDS011;2391;47.212;7.542;2022-12-07T15:44:41;20.93;;;12.20;;
4754;SDS011;2391;47.212;7.542;2022-12-07T15:47:26;20.10;;;11.77;;
4754;SDS011;2391;47.212;7.542;2022-12-07T15:49:51;18.67;;;11.37;;
4754;SDS011;2391;47.212;7.542;2022-12-07T15:52:17;18.93;;;11.43;;
4754;SDS011;2391;47.212;7.542;2022-12-07T15:54:44;16.63;;;11.30;;
4754;SDS011;2391;47.212;7.542;2022-12-07T15:57:10;18.83;;;12.43;;
4754;SDS011;2391;47.212;7.542;2022-12-07T15:59:36;19.50;;;12.00;;
4754;SDS011;2391;47.212;7.542;2022-12-07T16:02:01;20.40;;;11.63;;
4754;SDS011;2391;47.212;7.542;2022-12-07T16:04:27;17.07;;;11.13;;
4754;SDS011;2391;47.212;7.542;2022-12-07T16:06:55;16.87;;;11.60;;
4754;SDS011;2391;47.212;7.542;2022-12-07T16:09:21;18.70;;;11.00;;
4754;SDS011;2391;47.212;7.542;2022-12-07T16:11:47;20.27;;;10.83;;
4754;SDS011;2391;47.212;7.542;2022-12-07T16:14:15;19.30;;;11.47;;
4754;SDS011;2391;47.212;7.542;2022-12-07T16:16:41;17.87;;;11.40;;
4754;SDS011;2391;47.212;7.542;2022-12-07T16:19:07;17.60;;;11.20;;
4754;SDS011;2391;47.212;7.542;2022-12-07T16:21:34;17.93;;;10.77;;
4754;SDS011;2391;47.212;7.542;2022-12-07T16:24:01;18.30;;;11.27;;
4754;SDS011;2391;47.212;7.542;2022-12-07T16:26:26;16.93;;;10.83;;
4754;SDS011;2391;47.212;7.542;2022-12-07T16:28:53;20.67;;;10.93;;
4754;SDS011;2391;47.212;7.542;2022-12-07T16:31:21;19.30;;;11.73;;
4754;SDS011;2391;47.212;7.542;2022-12-07T16:33:50;19.60;;;11.60;;
4754;SDS011;2391;47.212;7.542;2022-12-07T16:36:18;17.93;;;10.50;;
4754;SDS011;2391;47.212;7.542;2022-12-07T16:38:44;18.57;;;10.93;;
4754;SDS011;2391;47.212;7.542;2022-12-07T16:41:11;20.17;;;11.60;;
4754;SDS011;2391;47.212;7.542;2022-12-07T16:43:37;16.70;;;11.07;;
4754;SDS011;2391;47.212;7.542;2022-12-07T16:46:03;18.40;;;11.50;;
4754;SDS011;2391;47.212;7.542;2022-12-07T16:48:29;19.60;;;11.30;;
4754;SDS011;2391;47.212;7.542;2022-12-07T16:50:55;16.40;;;10.97;;
4754;SDS011;2391;47.212;7.542;2022-12-07T16:53:22;17.47;;;10.57;;
4754;SDS011;2391;47.212;7.542;2022-12-07T16:55:49;21.20;;;11.10;;
4754;SDS011;2391;47.212;7.542;2022-12-07T16:58:16;22.67;;;11.03;;
4754;SDS011;2391;47.212;7.542;2022-12-07T17:00:42;14.90;;;9.87;;
4754;SDS011;2391;47.212;7.542;2022-12-07T17:03:10;23.30;;;12.10;;
4754;SDS011;2391;47.212;7.542;2022-12-07T17:05:40;16.13;;;10.80;;
4754;SDS011;2391;47.212;7.542;2022-12-07T17:08:07;17.30;;;10.93;;
4754;SDS011;2391;47.212;7.542;2022-12-07T17:10:35;16.33;;;11.10;;
4754;SDS011;2391;47.212;7.542;2022-12-07T17:13:04;16.40;;;10.27;;
4754;SDS011;2391;47.212;7.542;2022-12-07T17:15:33;15.80;;;10.37;;
4754;SDS011;2391;47.212;7.542;2022-12-07T17:17:58;17.33;;;9.70;;
4754;SDS011;2391;47.212;7.542;2022-12-07T17:20:25;15.17;;;9.87;;
4754;SDS011;2391;47.212;7.542;2022-12-07T17:22:52;15.67;;;9.93;;
4754;SDS011;2391;47.212;7.542;2022-12-07T17:25:18;18.80;;;11.50;;